Terminal Aerodrome Forecast
Issued by NWS Duluth, MN

Home | Current Version | Previous Version | Text Only | Print | Product List | Glossary On
Versions: 1 2 3 4 5 6 7 8 9 10 11 12 13 14 15 16 17 18 19 20 21 22 23 24 25 26 27 28 29
941
FTUS43 KDLH 240328 AAB
TAFINL
TAF AMD
KINL 240328Z 2403/2424 36003KT P6SM VCSH FEW007 BKN011 OVC020
     FM240800 08005KT 4SM -SHRA BR SCT004 OVC007
     FM241500 15005KT P6SM -SHRA OVC010
     FM241800 19008G14KT P6SM VCSH OVC025=

USA.gov is the U.S. government's official web portal to all federal, state and local government web resources and services.